Saturday, August 30, 2014, 4:30 PM EDT
Back to Local

KPTW, Pottstown Limerick Airport

Location: Royersford, PA, United States Lat: 40.233
Local Time: 4:30 PM EDT (20:30 GMT) Lon: -75.55
Time Zone: US/Eastern Elev: 291 ft

Show me the last for .
Show Decoded

2014-08-30 15:54 METAR KPTW 301954Z AUTO VRB05KT 10SM OVC036 24/16 A3019 RMK AO2 SLP220 T02440161
                 =
2014-08-30 13:54 METAR KPTW 301754Z AUTO 21006KT 10SM BKN030 OVC039 24/16 A3024 RMK AO2 SLP235
                 T02390161 10239 20150 57011 =
2014-08-30 12:54 METAR KPTW 301654Z AUTO VRB04KT 10SM OVC039 23/16 A3025 RMK AO2 SLP240 T02280161
                 =
2014-08-30 12:19 METAR KPTW 301619Z AUTO VRB05KT 10SM SCT025 OVC040 23/16 A3026 RMK AO2 T02280161
                 =
2014-08-30 12:12 METAR KPTW 301612Z AUTO 20007KT 10SM BKN025 OVC040 22/16 A3026 RMK AO2 T02220161
                 =
2014-08-30 11:54 METAR KPTW 301554Z AUTO 19007KT 10SM FEW021 SCT026 BKN040 23/17 A3026 RMK AO2
                 SLP242 T02280167 =
2014-08-30 10:54 METAR KPTW 301454Z AUTO 00000KT 10SM FEW019 OVC039 21/17 A3027 RMK AO2 SLP246
                 T02110167 56006 =
2014-08-30 09:54 METAR KPTW 301354Z AUTO VRB03KT 10SM OVC041 19/16 A3027 RMK AO2 SLP247 T01940156
                 =
2014-08-30 06:54 METAR KPTW 301054Z AUTO 00000KT 10SM BKN045 13/12 A3028 RMK AO2 SLP251 T01280122
                 =
2014-08-30 05:54 METAR KPTW 300954Z AUTO 03003KT 10SM CLR 13/12 A3026 RMK AO2 SLP244 T01330122 =
2014-08-30 04:54 METAR KPTW 300854Z AUTO 07004KT 10SM CLR 14/13 A3026 RMK AO2 SLP243 T01390128
                 58001 =
2014-08-30 03:54 METAR KPTW 300754Z AUTO 00000KT 10SM CLR 13/13 A3026 RMK AO2 SLP244 T01330128 =
2014-08-30 02:54 METAR KPTW 300654Z AUTO 00000KT 10SM CLR 14/13 A3026 RMK AO2 SLP245 T01390128 =
2014-08-30 01:54 METAR KPTW 300554Z AUTO 00000KT 10SM CLR 14/13 A3026 RMK AO2 SLP244 T01440133
                 10206 20144 50002 =
2014-08-30 00:54 METAR KPTW 300454Z AUTO 00000KT 10SM CLR 16/14 A3027 RMK AO2 SLP245 T01560139
                 402560106 =
2014-08-29 23:54 METAR KPTW 300354Z AUTO 00000KT 10SM CLR 18/14 A3026 RMK AO2 SLP243 T01780144 =
2014-08-29 22:54 METAR KPTW 300254Z AUTO 00000KT 10SM CLR 18/14 A3026 RMK AO2 SLP241 T01830144
                 51020 =
2014-08-29 21:54 METAR KPTW 300154Z AUTO 00000KT 10SM CLR 18/12 A3024 RMK AO2 SLP236 T01830122 =
2014-08-29 20:54 METAR KPTW 300054Z AUTO 00000KT 10SM CLR 18/13 A3022 RMK AO2 SLP228 T01780128 =
2014-08-29 19:54 METAR KPTW 292354Z AUTO 00000KT 10SM CLR 21/12 A3020 RMK AO2 SLP221 T02060117
                 10256 20206 51006 =
2014-08-29 18:54 METAR KPTW 292254Z AUTO 23004KT 10SM CLR 24/11 A3019 RMK AO2 SLP219 T02390111 =
2014-08-29 17:54 METAR KPTW 292154Z AUTO 22005KT 10SM CLR 24/11 A3019 RMK AO2 SLP218 T02440106 =
2014-08-29 16:54 METAR KPTW 292054Z AUTO 20003KT 10SM CLR 24/11 A3018 RMK AO2 SLP215 T02440111
                 56006 =

Support USWX by starting your Amazon purchase here.